Liste des engagé(e)s
Classement
PDF
   
         
   
 
Pos N° Nom Prénom Pays Temps Ecart Pl. Cat. Pl. Sexe Club
1 985 SEAUME David 00:31:03 1 V1 1 M
2 955 COTTAZ Patrick 00:32:06 01:03 1 ES 2 M
3 962 KERSUSAN Dylann 00:33:59 02:56 1 SE 3 M
4 851 BROUSSET Tristan 00:34:08 03:05 2 SE 4 M
5 977 FAUSTO Franck 00:34:27 03:24 3 SE 5 M Foulée Vif Varces
6 969 SOUKIASSIAN Yann 00:34:33 03:30 1 JU 6 M GUC EAG
7 873 ARNOL SĂ©bastien 00:35:04 04:01 4 SE 7 M PRESI
8 949 LOCATELLI Kevin 00:35:05 04:02 1 CA 8 M US VIZILLE ATHLÉTISME
9 951 COLLET Corentin 00:35:24 04:21 2 CA 9 M CLUB SKI NORDIQUE VILLARD DE LANS
10 987 GARCIA BERTHOD Alain 00:35:25 04:22 1 V2 10 M
11 960 TAPIA Alexis 00:35:27 04:24 5 SE 11 M S/L ASPTT GRENOBLE
12 926 SCARFO Jean 00:36:28 05:25 2 V2 12 M
13 950 BROCARD Noé 00:37:15 06:12 3 CA 13 M
14 895 BLAIS Richard 00:37:34 06:31 3 V2 14 M
15 887 MARTIN Alain 00:38:06 07:03 4 V2 15 M PRESI
16 968 SCHOTT Mathieu 00:38:40 07:37 4 CA 16 M CSN VILLARD DE LANS
17 980 POUGNARD Raphaël 00:38:59 07:56 6 SE 17 M
18 965 ESTOURNEL Guillaume 00:39:09 08:06 7 SE 18 M
19 973 FERRAND Claude 00:39:26 08:23 1 V3 19 M
20 876 BALDET Marine 00:39:38 08:35 1 SE 1 F
21 933 MAHNANE Blandine 00:40:52 09:49 2 SE 2 F
22 932 FRETTI Benjamin 00:40:53 09:50 8 SE 20 M
23 856 FAURY Jean-Francois 00:40:57 09:54 5 V2 21 M UNE LUEUR D'ESPOIR
24 920 PETITEAU Johan 00:41:02 09:59 2 V1 22 M URIAGE RUNNING
25 891 PEROTTO Solenne 00:41:49 10:46 3 SE 3 F
26 959 FERRAFIAT Julien 00:42:49 11:46 9 SE 23 M
27 946 JAUKOVIC Julien 00:43:07 12:04 2 ES 24 M
28 943 BAUDOUIN Thomas 00:43:20 12:17 5 CA 25 M
29 995 TROUILLON Lionel 00:43:53 12:50 10 SE 26 M
30 997 VUILLET Cedric 00:43:55 12:52 3 V1 27 M
31 897 SOCKEEL Olivier 00:44:47 13:44 6 V2 28 M STPR
32 974 NUBAN Sonia 00:44:52 13:49 1 V1 4 F
33 874 ROUGEBOUX Frédéric 00:44:59 13:56 11 SE 29 M
34 918 PETITEAU Myriam 00:45:02 13:59 2 V1 5 F URIAGE RUNNING
35 957 RAVET Edwige 00:45:06 14:03 3 V1 6 F
36 879 BREDEAU Stéphane 00:45:07 14:04 4 V1 30 M
37 909 COTTIER Jérémy 00:45:09 14:06 12 SE 31 M
38 939 KIM COSAL Aurélie 00:45:31 14:28 4 SE 7 F
39 998 LLORCA Richard 00:45:35 14:32 13 SE 32 M
40 999 ALLARAZ Jean-Marie Laurent 00:45:35 14:32 14 SE 33 M
41 881 GOSSET Fabien 00:45:51 14:48 15 SE 34 M LES FABTUM
42 871 RIAUD Angélique 00:45:56 14:53 4 V1 8 F GRESIATHLE
43 978 MATTEUCCI Patrick 00:45:57 14:54 7 V2 35 M
44 930 ASENCIO Terrence 00:45:57 14:54 16 SE 36 M GRESIATHLE
45 982 REYNAUD Richard 00:46:24 15:21 2 V3 37 M
46 899 LOLLIA Marie Laure 00:46:25 15:22 1 V2 9 F STPR
47 989 CHEVALLIER Christophe 00:46:41 15:38 17 SE 38 M
48 865 PELLIZZER Claire 00:46:47 15:44 5 SE 10 F
49 864 ROUX Aurélien 00:46:47 15:44 18 SE 39 M
50 940 BILLON Lucie 00:47:13 16:10 6 SE 11 F
51 1001 JOND Aline 00:48:03 17:00 7 SE 12 F
52 958 MARC SĂ©bastien 00:48:03 17:00 5 V1 40 M RIA CHAMPAGNIER
53 927 CORDEILLA Laurence 00:48:05 17:02 5 V1 13 F BAZOUZE FAMILY
54 886 BERTHET Bénédicte 00:48:12 17:09 8 SE 14 F
55 913 GIANORDOLI Clotilde 00:48:15 17:12 9 SE 15 F
56 964 DI ANTONIO Clara 00:48:39 17:36 10 SE 16 F
57 921 BOURDIN Anne 00:48:42 17:39 6 V1 17 F GRESIATHLE
58 923 SANTARELLI Aurelie 00:48:42 17:39 11 SE 18 F
59 919 CLAQUIN Delphine 00:48:53 17:50 7 V1 19 F
60 983 LADJALI Mohamed 00:48:59 17:56 1 V4 41 M
61 902 BRUN LEY Françoise 00:49:33 18:30 2 V2 20 F STPR
62 900 SACHETAT Christine 00:49:35 18:32 3 V2 21 F STPR
63 915 CONDÉ Mohamed 00:49:44 18:41 3 ES 42 M
64 890 OTT Alice 00:49:45 18:42 1 CA 22 F
65 971 FELLOUS Anna 00:50:32 19:29 8 V1 23 F
66 878 CHARAUX Marielle 00:50:33 19:30 9 V1 24 F
67 859 MULLER Philippe 00:50:36 19:33 8 V2 43 M
68 963 GIBSON Dean 00:50:44 19:41 3 V3 44 M
69 916 BODDAERT Cyril 00:51:00 19:57 6 V1 45 M
70 908 HELFRICH Holly 00:51:05 20:02 10 V1 25 F
71 970 FERNANDEZ Christophe 00:51:12 20:09 7 V1 46 M
72 941 DELFIEUX Frédéric 00:51:13 20:10 8 V1 47 M
73 896 RIVOLLIER Isabelle 00:51:14 20:11 4 V2 26 F STPR
74 945 GIORDANO Martine 00:51:42 20:39 11 V1 27 F
75 996 DEPEISSES Laurent 00:51:47 20:44 9 V1 48 M
76 966 DEPEISSES Alicia 00:51:47 20:44 2 CA 28 F
77 954 ROMERO Delphine 00:52:03 21:00 12 SE 29 F
78 901 BARBIER Marie 00:52:44 21:41 5 V2 30 F STPR
79 935 BAO Jiawei 00:53:00 21:57 19 SE 49 M
80 893 BARROS Emilie 00:53:02 21:59 13 SE 31 F
81 967 QUINODOZ Aurélie 00:53:10 22:07 12 V1 32 F
82 906 POLLIEN Christelle 00:53:13 22:10 13 V1 33 F
83 869 DURET Emeline 00:53:18 22:15 14 SE 34 F
84 883 DURET CĂ©line 00:53:19 22:16 15 SE 35 F
85 877 CHEVAILLIER Fanny 00:53:21 22:18 16 SE 36 F
86 852 VANDERMARCQ Adeline 00:53:30 22:27 17 SE 37 F
87 931 GUENOT Yann 00:53:48 22:45 10 V1 50 M
88 981 LAMARIQUE Anne 00:54:00 22:57 18 SE 38 F
89 1002 LARRAS Joséphine 00:54:11 23:08 1 JU 39 F Uriage running
90 922 GANIVET KALY Elisabeth 00:54:14 23:11 6 V2 40 F
91 944 BAUDOUIN Celine 00:54:14 23:11 14 V1 41 F
92 979 HAMMERER Audrey 00:54:15 23:12 15 V1 42 F
93 937 PINSTON Elisa 00:54:34 23:31 3 CA 43 F
94 882 LASSERRE Jordan 00:54:37 23:34 20 SE 51 M LES FABTUM
95 936 GOMIS Marie-Laure 00:54:39 23:36 19 SE 44 F
96 942 ROULET Virginie 00:54:46 23:43 16 V1 45 F LYNX RH
97 1000 CHARLES Aurélie 00:55:07 24:04 20 SE 46 F
98 863 FAURE Aurore 00:55:21 24:18 21 SE 47 F
99 924 BARRIER Caroline 00:55:30 24:27 22 SE 48 F
100 861 CHARLES Aurélie 00:55:30 24:27 23 SE 49 F
101 862 PASQUIER Mandine 00:56:06 25:03 24 SE 50 F
102 892 BATTISTEL Marilyne 00:56:25 25:22 25 SE 51 F TEAM VLH
103 972 CARRAS Martine 00:56:37 25:34 17 V1 52 F
104 853 SOBOUL Marine 00:57:11 26:08 1 ES 53 F
105 928 TĂŠTE Manon 00:57:19 26:16 2 ES 54 F
106 986 DE FONDAUMIERE Nadia 00:57:20 26:17 18 V1 55 F
107 929 MINACORI Laura 00:57:22 26:19 3 ES 56 F
108 934 BRUANT Marie 00:57:28 26:25 26 SE 57 F
109 858 CREBIER Isabelle 00:57:31 26:28 19 V1 58 F
110 975 DETROYAT Nathalie 00:57:53 26:50 7 V2 59 F
111 866 MANSOUX Benoit 00:59:02 27:59 11 V1 52 M
112 952 CHAUVIN Aurélie 00:59:38 28:35 27 SE 60 F
113 953 COSSALTER Vincent 00:59:39 28:36 21 SE 53 M
114 872 BONGIBAULT Julie 00:59:59 28:56 28 SE 61 F
115 948 MÉNEZ Loick 01:00:10 29:07 6 CA 54 M US VIZILLE ATHLÉTISME
116 875 LIAUD Rachel 01:00:16 29:13 8 V2 62 F
117 855 BERTIN Marianne 01:00:18 29:15 29 SE 63 F
118 857 FAURY Solene 01:01:10 30:07 30 SE 64 F UNE LUEUR D'ESPOIR
119 956 VIELET Anne 01:01:11 30:08 20 V1 65 F
120 868 PERRAUD Pascal 01:01:34 30:31 9 V2 55 M
121 990 SAUTEREY Matthieu 01:01:38 30:35 12 V1 56 M
122 888 BOUTHORS Jean Paul 01:02:33 31:30 2 V4 57 M
123 894 BOUCHER CĂ©line 01:02:57 31:54 31 SE 66 F TEAM VLH
124 867 GARET CĂ©cile 01:02:57 31:54 21 V1 67 F
125 870 PERRAUD Melanie 01:02:57 31:54 32 SE 68 F
126 911 HOARAU Marie-Ange 01:03:19 32:16 22 V1 69 F
127 925 VERNAY Elsa 01:03:25 32:22 23 V1 70 F
128 993 DEVILLE CAVELLIN Jean-François 01:03:28 32:25 13 V1 58 M
129 938 MILLIET Ophélie 01:03:49 32:46 33 SE 71 F
130 880 GUERIN Amandine 01:03:49 32:46 34 SE 72 F
131 910 MAYEN Celine 01:03:59 32:56 24 V1 73 F
132 988 SCARINGELLA Jean 01:04:37 33:34 4 V3 59 M
133 991 SAUTEREY Aline 01:04:37 33:34 35 SE 74 F
134 301 ?Dossard #301 01:05:21 34:18 22 SE 60 M
135 976 GREENE Adrew 01:07:14 36:11 3 V4 61 M
136 907 PELLERIN Aurelie 01:07:40 36:37 36 SE 75 F
137 854 HYVERNAT Aurore 01:10:03 39:00 4 ES 76 F
138 917 SITTARAME Héléna 01:10:30 39:27 9 V2 77 F
139 898 GIRY Marion 01:11:15 40:12 37 SE 78 F STPR
140 904 PAVY Lola 01:12:14 41:11 4 CA 79 F
141 905 TRIVELLA Fausta 01:12:56 41:53 1 V3 80 F
142 994 DEVILLE CAVELLIN Aurélie 01:18:15 47:12 38 SE 81 F
  Cross du Pain - 7km - CHRONOMETRAGE PERF EVENT 2019
 
Nombre ou lettres (3 minimum)
Classement    
Filtre :
Rang :